Terminal Aerodrome Forecast
Issued by NWS Central Illinois

Home | Current Version | Previous Version | Text Only | Print | Product List | Glossary On
Versions: 1 2 3 4 5 6 7 8 9 10 11 12 13 14 15 16 17 18 19 20 21 22 23 24 25
000
FTUS43 KILX 050520
TAFSPI
TAF
KSPI 050520Z 0506/0606 VRB03KT 5SM HZ SKC
     FM050700 VRB03KT 4SM BR SKC
      TEMPO 0508/0512 2SM BR
     FM051300 14004KT P6SM SCT025
     FM051900 17007KT P6SM SCT030=

USA.gov is the U.S. government's official web portal to all federal, state and local government web resources and services.